Vernon, Texas
Current Conditions -  °F | °C
As of 3:16 AM on Thursday 23 Oct 2014 (Local Time) from KF05 Reporting Station
Overcast Overcast  
Wind Chill: 17°   Ceiling: 6000
Heat Index: 17°   Visibility: 4mi
Dew Point: 15°   Wind: 0mph
Humidity: 88%   Direction: NA
Pressure: 30.11"   Gusts: NA
Location:  34.15°N, 99.28°W
Report Text: KF05 230816Z AUTO 00000KT 4SM OVC060 17/15 A3011 RMK AO2
Loading
Personal Weather Stations






























Interactive Weather Map
Tropical Storm Tracking
New forecast layout! Learn more

10-Day Weather Forecast

Advertisements
Track Severe Weather on mobile